createdAt,value
2018-05-26T00:01:03.480Z,100.00
2018-05-26T00:03:31.111Z,100.00
2018-05-26T00:05:58.708Z,100.00
2018-05-26T00:08:26.305Z,100.00
2018-05-26T00:10:53.949Z,100.00
2018-05-26T00:13:21.566Z,100.00
2018-05-26T00:15:49.160Z,100.00
2018-05-26T00:18:16.787Z,100.00
2018-05-26T00:20:44.392Z,100.00
2018-05-26T00:23:12.004Z,100.00
2018-05-26T00:25:39.660Z,100.00
2018-05-26T00:28:07.265Z,100.00
2018-05-26T00:30:34.921Z,100.00
2018-05-26T00:33:02.562Z,100.00
2018-05-26T00:35:30.165Z,100.00
2018-05-26T00:37:57.767Z,100.00
2018-05-26T00:40:25.421Z,100.00
2018-05-26T00:42:53.023Z,100.00
2018-05-26T00:45:20.612Z,100.00
2018-05-26T00:47:48.244Z,100.00
2018-05-26T00:50:15.888Z,100.00
2018-05-26T00:52:43.478Z,100.00
2018-05-26T00:55:11.256Z,100.00
2018-05-26T00:57:38.843Z,100.00
2018-05-26T01:00:06.453Z,100.00
2018-05-26T01:02:34.091Z,100.00
2018-05-26T01:05:01.704Z,100.00
2018-05-26T01:07:29.297Z,100.00
2018-05-26T01:09:56.935Z,100.00
2018-05-26T01:12:24.547Z,100.00
2018-05-26T01:14:52.151Z,100.00
2018-05-26T01:17:19.780Z,100.00
2018-05-26T01:19:47.372Z,100.00
2018-05-26T01:22:14.965Z,99.92
2018-05-26T01:24:42.614Z,99.89
2018-05-26T01:27:10.214Z,100.00
2018-05-26T01:29:37.800Z,100.00
2018-05-26T01:32:05.459Z,100.00
2018-05-26T01:34:33.047Z,99.93
2018-05-26T01:37:00.642Z,100.00
2018-05-26T01:39:28.267Z,100.00
2018-05-26T01:41:55.867Z,100.00
2018-05-26T01:44:23.480Z,100.00
2018-05-26T01:46:51.111Z,100.00
2018-05-26T01:49:18.700Z,100.00
2018-05-26T01:51:46.297Z,100.00
2018-05-26T01:54:13.937Z,100.00
2018-05-26T01:56:41.581Z,100.00
2018-05-26T01:59:09.175Z,100.00
2018-05-26T02:01:36.817Z,100.00
2018-05-26T02:04:04.417Z,100.00
2018-05-26T02:06:32.013Z,100.00
2018-05-26T02:08:59.648Z,100.00
2018-05-26T02:11:27.246Z,100.00
2018-05-26T02:13:54.832Z,100.00
2018-05-26T02:16:22.474Z,100.00
2018-05-26T02:18:50.063Z,100.00
2018-05-26T02:21:17.648Z,100.00
2018-05-26T02:23:45.274Z,100.00
2018-05-26T02:26:12.869Z,100.00
2018-05-26T02:28:40.456Z,100.00
2018-05-26T02:31:08.093Z,100.00
2018-05-26T02:33:35.698Z,100.00
2018-05-26T02:36:03.339Z,100.00
2018-05-26T02:38:30.980Z,100.00
2018-05-26T02:40:58.570Z,100.00
2018-05-26T02:43:26.159Z,100.00
2018-05-26T02:45:53.800Z,100.00
2018-05-26T02:48:21.410Z,100.00
2018-05-26T02:50:49.024Z,100.00
2018-05-26T02:53:16.666Z,100.00
2018-05-26T02:55:44.293Z,100.00
2018-05-26T02:58:11.894Z,100.00
2018-05-26T03:00:39.552Z,100.00
2018-05-26T03:03:07.144Z,100.00
2018-05-26T03:05:40.217Z,100.00
2018-05-26T03:08:13.202Z,100.00
2018-05-26T03:10:46.522Z,100.00
2018-05-26T03:13:19.655Z,100.00
2018-05-26T03:15:48.805Z,100.00
2018-05-26T03:18:16.413Z,100.00
2018-05-26T03:20:44.005Z,100.00
2018-05-26T03:23:11.627Z,100.00
2018-05-26T03:25:39.251Z,100.00
2018-05-26T03:28:06.855Z,100.00
2018-05-26T03:30:34.499Z,99.96
2018-05-26T03:33:02.110Z,98.56
2018-05-26T03:35:29.697Z,97.20
2018-05-26T03:37:57.313Z,95.21
2018-05-26T03:40:24.920Z,92.45
2018-05-26T03:42:52.512Z,92.30
2018-05-26T03:45:20.136Z,92.26
2018-05-26T03:47:47.780Z,92.69
2018-05-26T03:50:15.370Z,93.52
2018-05-26T03:52:42.985Z,93.57
2018-05-26T03:58:23.922Z,93.66
2018-05-26T04:00:51.512Z,91.85
2018-05-26T04:03:19.120Z,86.32
2018-05-26T04:05:46.753Z,76.88
2018-05-26T04:08:14.356Z,68.10
2018-05-26T04:10:41.952Z,64.84
2018-05-26T04:13:09.586Z,66.64
2018-05-26T04:15:37.168Z,70.41
2018-05-26T04:18:04.800Z,71.19
2018-05-26T04:20:32.425Z,70.20
2018-05-26T04:23:00.002Z,65.89
2018-05-26T04:25:27.578Z,60.82
2018-05-26T04:27:55.202Z,57.16
2018-05-26T04:30:22.778Z,54.13
2018-05-26T04:32:50.379Z,52.00
2018-05-26T04:35:18.024Z,48.16
2018-05-26T04:37:45.636Z,47.71
2018-05-26T04:40:13.230Z,48.51
2018-05-26T04:42:40.872Z,47.63
2018-05-26T04:45:08.469Z,50.40
2018-05-26T04:47:36.072Z,55.68
2018-05-26T04:50:03.708Z,61.49
2018-05-26T04:52:31.305Z,65.19
2018-05-26T04:54:58.900Z,67.22
2018-05-26T04:57:26.514Z,66.25
2018-05-26T04:59:54.111Z,68.77
2018-05-26T05:02:21.720Z,71.04
2018-05-26T05:04:49.337Z,74.45
2018-05-26T05:07:16.927Z,74.31
2018-05-26T05:09:44.511Z,73.60
2018-05-26T05:12:12.142Z,74.33
2018-05-26T05:14:39.737Z,74.51
2018-05-26T05:17:07.332Z,74.49
2018-05-26T05:19:34.989Z,75.71
2018-05-26T05:22:02.589Z,76.48
2018-05-26T05:24:30.179Z,77.64
2018-05-26T05:26:57.808Z,77.79
2018-05-26T05:29:25.397Z,77.93
2018-05-26T05:31:52.989Z,76.05
2018-05-26T05:34:20.695Z,67.75
2018-05-26T05:36:48.297Z,57.99
2018-05-26T05:39:15.897Z,54.47
2018-05-26T05:41:43.533Z,54.19
2018-05-26T05:44:11.133Z,51.12
2018-05-26T05:46:38.719Z,52.44
2018-05-26T05:49:06.344Z,56.14
2018-05-26T05:51:33.941Z,59.76
2018-05-26T05:54:01.531Z,64.29
2018-05-26T05:56:29.191Z,66.98
2018-05-26T05:58:56.778Z,69.02
2018-05-26T06:01:24.396Z,70.36
2018-05-26T06:03:52.019Z,69.10
2018-05-26T06:06:19.611Z,66.10
2018-05-26T06:08:47.190Z,55.32
2018-05-26T06:11:14.827Z,53.95
2018-05-26T06:13:42.416Z,52.70
2018-05-26T06:16:09.999Z,56.27
2018-05-26T06:18:37.629Z,59.50
2018-05-26T06:21:05.223Z,60.96
2018-05-26T06:23:39.757Z,61.44
2018-05-26T06:26:07.341Z,62.75
2018-05-26T06:28:34.998Z,64.50
2018-05-26T06:31:02.627Z,67.33
2018-05-26T06:33:30.224Z,64.75
2018-05-26T06:35:57.879Z,64.33
2018-05-26T06:38:25.497Z,63.74
2018-05-26T06:40:53.352Z,56.75
2018-05-26T06:43:20.957Z,56.20
2018-05-26T06:45:48.583Z,57.15
2018-05-26T06:48:16.199Z,58.00
2018-05-26T06:50:43.805Z,56.95
2018-05-26T06:53:11.459Z,57.20
2018-05-26T06:55:39.039Z,53.66
2018-05-26T06:58:06.648Z,51.51
2018-05-26T07:00:34.255Z,48.51
2018-05-26T07:03:01.840Z,45.04
2018-05-26T07:05:29.434Z,47.27
2018-05-26T07:07:57.051Z,45.19
2018-05-26T07:10:24.635Z,47.53
2018-05-26T07:12:52.231Z,49.16
2018-05-26T07:15:19.864Z,50.90
2018-05-26T07:17:48.379Z,50.96
2018-05-26T07:20:15.968Z,56.25
2018-05-26T07:22:43.591Z,53.29
2018-05-26T07:25:11.185Z,54.63
2018-05-26T07:27:38.831Z,54.19
2018-05-26T07:30:06.456Z,53.14
2018-05-26T07:32:34.043Z,54.43
2018-05-26T07:35:01.635Z,58.22
2018-05-26T07:37:29.295Z,58.59
2018-05-26T07:39:56.876Z,55.97
2018-05-26T07:42:24.461Z,55.33
2018-05-26T07:44:52.083Z,54.35
2018-05-26T07:47:19.661Z,56.04
2018-05-26T07:49:47.231Z,53.69
2018-05-26T07:52:14.860Z,50.39
2018-05-26T07:54:42.456Z,50.81
2018-05-26T07:57:10.041Z,49.56
2018-05-26T07:59:37.630Z,51.31
2018-05-26T08:02:05.204Z,50.71
2018-05-26T08:04:32.788Z,54.86
2018-05-26T08:07:00.415Z,54.97
2018-05-26T08:09:28.005Z,54.66
2018-05-26T08:11:55.576Z,56.61
2018-05-26T08:14:23.175Z,55.29
2018-05-26T08:16:50.742Z,52.19
2018-05-26T08:19:18.312Z,51.88
2018-05-26T08:21:45.917Z,45.77
2018-05-26T08:24:13.503Z,46.47
2018-05-26T08:26:41.089Z,46.44
2018-05-26T08:29:08.680Z,43.63
2018-05-26T08:31:36.260Z,38.24
2018-05-26T08:34:03.852Z,37.27
2018-05-26T08:36:31.473Z,39.09
2018-05-26T08:38:59.079Z,39.05
2018-05-26T08:41:26.718Z,41.81
2018-05-26T08:43:54.403Z,41.98
2018-05-26T08:46:21.991Z,42.26
2018-05-26T08:48:49.579Z,44.38
2018-05-26T08:51:17.200Z,43.80
2018-05-26T08:53:44.792Z,44.70
2018-05-26T08:56:12.374Z,43.40
2018-05-26T08:58:39.992Z,44.85
2018-05-26T09:01:07.566Z,41.11
2018-05-26T09:03:35.143Z,40.85
2018-05-26T09:06:02.738Z,40.91
2018-05-26T09:08:30.466Z,44.06
2018-05-26T09:10:58.041Z,41.59
2018-05-26T09:13:25.651Z,39.69
2018-05-26T09:15:53.228Z,40.35
2018-05-26T09:18:20.810Z,39.01
2018-05-26T09:20:48.419Z,40.33
2018-05-26T09:23:16.040Z,37.95
2018-05-26T09:25:43.605Z,38.04
2018-05-26T09:28:11.367Z,39.01
2018-05-26T09:30:38.981Z,38.75
2018-05-26T09:33:06.568Z,36.45
2018-05-26T09:35:35.090Z,38.10
2018-05-26T09:38:02.700Z,36.21
2018-05-26T09:40:30.296Z,37.59
2018-05-26T09:42:57.896Z,38.70
2018-05-26T09:45:25.488Z,43.43
2018-05-26T09:47:53.115Z,38.32
2018-05-26T09:50:20.714Z,41.62
2018-05-26T09:52:48.289Z,42.29
2018-05-26T09:55:15.859Z,36.79
2018-05-26T09:57:43.468Z,37.29
2018-05-26T10:00:11.036Z,34.06
2018-05-26T10:02:38.613Z,33.10
2018-05-26T10:05:06.266Z,37.66
2018-05-26T10:07:33.871Z,36.86
2018-05-26T10:10:01.447Z,38.33
2018-05-26T10:12:29.063Z,39.39
2018-05-26T10:14:56.677Z,36.62
2018-05-26T10:17:24.266Z,35.10
2018-05-26T10:19:51.952Z,37.47
2018-05-26T10:22:19.543Z,38.21
2018-05-26T10:24:47.136Z,38.23
2018-05-26T10:27:14.751Z,36.33
2018-05-26T10:29:42.329Z,37.31
2018-05-26T10:32:09.913Z,36.41
2018-05-26T10:34:37.533Z,37.46
2018-05-26T10:37:05.125Z,37.46
2018-05-26T10:39:32.722Z,40.86
2018-05-26T10:42:00.354Z,39.15
2018-05-26T10:44:27.926Z,38.92
2018-05-26T10:46:55.518Z,39.14
2018-05-26T10:49:23.155Z,39.58
2018-05-26T10:51:50.762Z,41.80
2018-05-26T10:54:18.334Z,39.72
2018-05-26T10:56:45.983Z,39.21
2018-05-26T10:59:13.578Z,39.37
2018-05-26T11:01:41.194Z,35.78
2018-05-26T11:04:08.840Z,38.13
2018-05-26T11:06:48.228Z,38.67
2018-05-26T11:09:15.867Z,41.35
2018-05-26T11:11:43.436Z,37.08
2018-05-26T11:14:11.007Z,35.44
2018-05-26T11:16:38.660Z,34.83
2018-05-26T11:19:06.255Z,34.02
2018-05-26T11:21:33.837Z,37.14
2018-05-26T11:24:01.644Z,38.07
2018-05-26T11:26:29.086Z,39.23
2018-05-26T11:28:56.661Z,41.84
2018-05-26T11:31:24.399Z,41.89
2018-05-26T11:33:51.969Z,41.70
2018-05-26T11:36:19.729Z,40.83
2018-05-26T11:38:47.342Z,38.85
2018-05-26T11:41:14.919Z,38.55
2018-05-26T11:43:42.527Z,37.28
2018-05-26T11:46:10.152Z,37.08
2018-05-26T11:48:37.727Z,35.18
2018-05-26T11:51:05.316Z,35.35
2018-05-26T11:53:32.924Z,36.88
2018-05-26T11:56:00.509Z,36.85
2018-05-26T11:58:28.076Z,38.96
2018-05-26T12:00:55.697Z,38.54
2018-05-26T12:03:23.277Z,42.46
2018-05-26T12:05:50.859Z,41.85
2018-05-26T12:08:18.532Z,38.35
2018-05-26T12:10:46.132Z,35.92
2018-05-26T12:13:13.740Z,35.27
2018-05-26T12:15:41.396Z,33.03
2018-05-26T12:18:08.977Z,33.20
2018-05-26T12:20:36.538Z,33.20
2018-05-26T12:23:04.150Z,32.80
2018-05-26T12:25:31.739Z,34.26
2018-05-26T12:27:59.321Z,35.21
2018-05-26T12:30:26.943Z,37.35
2018-05-26T12:32:54.515Z,40.50
2018-05-26T12:35:22.087Z,41.10
2018-05-26T12:37:49.709Z,40.18
2018-05-26T12:40:17.321Z,41.42
2018-05-26T12:42:44.889Z,40.96
2018-05-26T12:45:12.510Z,40.04
2018-05-26T12:47:40.097Z,36.74
2018-05-26T12:50:07.791Z,38.57
2018-05-26T12:52:35.493Z,37.62
2018-05-26T12:55:03.065Z,34.44
2018-05-26T12:57:30.639Z,36.92
2018-05-26T12:59:58.236Z,35.73
2018-05-26T13:02:25.818Z,38.19
2018-05-26T13:04:53.400Z,37.74
2018-05-26T13:07:20.995Z,39.16
2018-05-26T13:09:48.570Z,38.84
2018-05-26T13:12:16.140Z,36.24
2018-05-26T13:14:43.738Z,36.42
2018-05-26T13:17:11.321Z,37.58
2018-05-26T13:19:38.883Z,35.40
2018-05-26T13:22:06.496Z,34.65
2018-05-26T13:24:34.064Z,34.14
2018-05-26T13:27:01.630Z,33.99
2018-05-26T13:29:29.234Z,34.51
2018-05-26T13:31:56.792Z,34.84
2018-05-26T13:34:24.496Z,32.42
2018-05-26T13:36:52.088Z,34.38
2018-05-26T13:39:19.674Z,34.39
2018-05-26T13:41:47.236Z,35.59
2018-05-26T13:44:14.896Z,35.41
2018-05-26T13:46:42.560Z,34.68
2018-05-26T13:49:10.133Z,35.29
2018-05-26T13:51:37.909Z,35.36
2018-05-26T13:54:05.528Z,34.54
2018-05-26T13:56:33.134Z,35.42
2018-05-26T13:59:00.751Z,35.51
2018-05-26T14:01:28.325Z,35.61
2018-05-26T14:03:55.895Z,34.76
2018-05-26T14:06:23.639Z,34.96
2018-05-26T14:08:51.205Z,34.57
2018-05-26T14:11:18.773Z,35.48
2018-05-26T14:13:46.382Z,35.21
2018-05-26T14:16:13.967Z,36.12
2018-05-26T14:18:41.530Z,36.24
2018-05-26T14:21:09.139Z,34.84
2018-05-26T14:23:36.711Z,35.05
2018-05-26T14:26:04.288Z,35.78
2018-05-26T14:28:31.902Z,35.53
2018-05-26T14:30:59.479Z,34.62
2018-05-26T14:33:27.047Z,35.14
2018-05-26T14:35:54.661Z,35.52
2018-05-26T14:38:22.242Z,34.69
2018-05-26T14:40:49.836Z,35.51
2018-05-26T14:43:17.431Z,35.85
2018-05-26T14:45:45.005Z,37.22
2018-05-26T14:48:12.690Z,37.81
2018-05-26T14:50:40.288Z,38.39
2018-05-26T14:53:07.881Z,38.85
2018-05-26T14:55:35.668Z,38.51
2018-05-26T14:58:03.301Z,37.62
2018-05-26T15:00:30.868Z,38.38
2018-05-26T15:02:58.419Z,38.22
2018-05-26T15:05:26.019Z,38.83
2018-05-26T15:07:53.604Z,39.00
2018-05-26T15:10:21.172Z,38.96
2018-05-26T15:12:48.952Z,38.25
2018-05-26T15:15:16.466Z,38.57
2018-05-26T15:17:44.213Z,38.13
2018-05-26T15:20:11.879Z,38.43
2018-05-26T15:22:39.640Z,37.79
2018-05-26T15:25:07.234Z,37.52
2018-05-26T15:27:34.869Z,39.12
2018-05-26T15:30:02.423Z,39.10
2018-05-26T15:32:29.981Z,38.39
2018-05-26T15:34:57.632Z,38.50
2018-05-26T15:37:25.192Z,41.08
2018-05-26T15:39:52.759Z,45.97
2018-05-26T15:42:20.434Z,47.82
2018-05-26T15:44:48.001Z,49.68
2018-05-26T15:47:15.575Z,51.56
2018-05-26T15:49:43.397Z,51.35
2018-05-26T15:52:10.982Z,52.07
2018-05-26T15:54:38.740Z,52.29
2018-05-26T15:57:06.354Z,52.10
2018-05-26T15:59:34.055Z,52.18
2018-05-26T16:02:01.637Z,53.10
2018-05-26T16:04:29.377Z,52.41
2018-05-26T16:06:56.955Z,52.28
2018-05-26T16:09:24.514Z,52.18
2018-05-26T16:11:52.106Z,51.34
2018-05-26T16:14:19.676Z,51.92
2018-05-26T16:16:47.251Z,51.29
2018-05-26T16:19:14.880Z,51.42
2018-05-26T16:21:42.450Z,51.64
2018-05-26T16:24:10.099Z,52.16
2018-05-26T16:26:37.700Z,52.60
2018-05-26T16:29:05.272Z,53.21
2018-05-26T16:31:32.839Z,52.91
2018-05-26T16:34:00.445Z,53.42
2018-05-26T16:36:28.017Z,53.46
2018-05-26T16:38:55.574Z,54.12
2018-05-26T16:41:23.396Z,54.75
2018-05-26T16:43:51.048Z,54.32
2018-05-26T16:46:18.710Z,54.82
2018-05-26T16:48:46.312Z,55.51
2018-05-26T16:51:14.046Z,55.30
2018-05-26T16:53:41.615Z,55.99
2018-05-26T16:56:09.227Z,55.57
2018-05-26T16:58:37.081Z,55.77
2018-05-26T17:01:04.700Z,56.03
2018-05-26T17:03:32.368Z,56.95
2018-05-26T17:06:00.196Z,57.85
2018-05-26T17:08:27.887Z,57.56
2018-05-26T17:10:55.556Z,57.70
2018-05-26T17:13:23.143Z,58.44
2018-05-26T17:15:50.772Z,59.02
2018-05-26T17:18:18.392Z,60.87
2018-05-26T17:20:46.187Z,60.80
2018-05-26T17:23:13.780Z,60.57
2018-05-26T17:25:41.524Z,62.85
2018-05-26T17:28:09.185Z,62.81
2018-05-26T17:30:36.830Z,62.33
2018-05-26T17:33:04.437Z,62.15
2018-05-26T17:35:32.013Z,62.51
2018-05-26T17:37:59.572Z,62.80
2018-05-26T17:40:27.188Z,65.33
2018-05-26T17:42:54.763Z,67.62
2018-05-26T17:45:22.337Z,68.64
2018-05-26T17:47:49.949Z,71.95
2018-05-26T17:50:17.537Z,72.45
2018-05-26T17:52:45.174Z,73.06
2018-05-26T17:55:12.770Z,72.93
2018-05-26T17:57:40.358Z,71.68
2018-05-26T18:00:07.951Z,71.19
2018-05-26T18:02:35.558Z,70.40
2018-05-26T18:05:03.122Z,71.28
2018-05-26T18:07:30.689Z,71.66
2018-05-26T18:09:58.293Z,78.53
2018-05-26T18:12:26.078Z,78.70
2018-05-26T18:14:53.734Z,80.70
2018-05-26T18:17:21.385Z,81.36
2018-05-26T18:19:48.973Z,82.70
2018-05-26T18:22:16.597Z,83.03
2018-05-26T18:24:44.156Z,83.46
2018-05-26T18:27:11.758Z,83.54
2018-05-26T18:29:39.376Z,83.98
2018-05-26T18:32:06.962Z,83.80
2018-05-26T18:34:34.542Z,83.46
2018-05-26T18:37:02.170Z,84.95
2018-05-26T18:39:29.739Z,85.87
2018-05-26T18:41:57.493Z,87.92
2018-05-26T18:44:25.094Z,90.02
2018-05-26T18:46:52.671Z,92.53
2018-05-26T18:49:20.266Z,91.28
2018-05-26T18:51:47.883Z,88.19
2018-05-26T18:54:15.655Z,87.69
2018-05-26T18:56:43.240Z,84.26
2018-05-26T18:59:10.852Z,83.51
2018-05-26T19:01:38.615Z,81.98
2018-05-26T19:04:06.199Z,79.51
2018-05-26T19:06:33.890Z,79.35
2018-05-26T19:09:01.492Z,79.54
2018-05-26T19:11:29.075Z,79.55
2018-05-26T19:13:56.798Z,80.16
2018-05-26T19:16:24.415Z,79.98
2018-05-26T19:18:51.994Z,80.40
2018-05-26T19:21:19.621Z,80.57
2018-05-26T19:23:47.218Z,80.80
2018-05-26T19:26:14.808Z,81.22
2018-05-26T19:28:42.420Z,80.39
2018-05-26T19:31:10.004Z,79.94
2018-05-26T19:33:37.656Z,80.00
2018-05-26T19:36:05.285Z,79.93
2018-05-26T19:38:32.851Z,78.35
2018-05-26T19:41:00.425Z,80.28
2018-05-26T19:43:28.039Z,80.12
2018-05-26T19:45:55.634Z,79.40
2018-05-26T19:48:23.211Z,79.38
2018-05-26T19:50:50.833Z,80.38
2018-05-26T19:53:18.425Z,80.74
2018-05-26T19:55:46.026Z,82.49
2018-05-26T19:58:13.656Z,83.66
2018-05-26T20:00:41.226Z,83.72
2018-05-26T20:03:08.823Z,85.25
2018-05-26T20:05:36.430Z,86.18
2018-05-26T20:08:04.006Z,87.70
2018-05-26T20:10:31.793Z,88.83
2018-05-26T20:12:59.398Z,89.02
2018-05-26T20:15:26.984Z,90.22
2018-05-26T20:17:54.580Z,90.99
2018-05-26T20:20:22.213Z,91.74
2018-05-26T20:22:49.788Z,92.19
2018-05-26T20:25:17.382Z,92.09
2018-05-26T20:27:45.007Z,91.09
2018-05-26T20:30:12.581Z,91.80
2018-05-26T20:32:40.162Z,91.38
2018-05-26T20:35:07.766Z,91.67
2018-05-26T20:37:35.339Z,91.94
2018-05-26T20:40:02.920Z,92.44
2018-05-26T20:42:30.536Z,92.17
2018-05-26T20:44:58.365Z,91.64
2018-05-26T20:47:25.939Z,91.28
2018-05-26T20:49:53.541Z,91.74
2018-05-26T20:52:21.128Z,92.33
2018-05-26T20:54:48.708Z,91.19
2018-05-26T20:57:16.310Z,91.22
2018-05-26T20:59:43.978Z,90.84
2018-05-26T21:02:11.541Z,91.37
2018-05-26T21:04:39.141Z,91.81
2018-05-26T21:07:06.728Z,92.91
2018-05-26T21:09:34.318Z,92.88
2018-05-26T21:12:01.947Z,93.43
2018-05-26T21:14:29.527Z,93.74
2018-05-26T21:16:57.087Z,94.23
2018-05-26T21:19:24.808Z,94.62
2018-05-26T21:21:52.372Z,94.68
2018-05-26T21:24:19.945Z,94.74
2018-05-26T21:26:47.562Z,94.85
2018-05-26T21:29:15.141Z,95.48
2018-05-26T21:31:42.730Z,95.72
2018-05-26T21:34:10.352Z,96.24
2018-05-26T21:36:37.934Z,96.82
2018-05-26T21:39:06.419Z,96.54
2018-05-26T21:41:34.061Z,96.28
2018-05-26T21:44:01.644Z,96.59
2018-05-26T21:46:29.320Z,96.88
2018-05-26T21:48:57.041Z,96.65
2018-05-26T21:51:24.652Z,96.32
2018-05-26T21:53:52.244Z,95.92
2018-05-26T21:56:19.906Z,95.92
2018-05-26T21:58:47.488Z,96.49
2018-05-26T22:01:15.055Z,96.49
2018-05-26T22:03:42.692Z,97.44
2018-05-26T22:06:10.337Z,97.75
2018-05-26T22:08:37.885Z,97.62
2018-05-26T22:11:05.487Z,97.34
2018-05-26T22:13:33.055Z,97.70
2018-05-26T22:16:00.627Z,97.83
2018-05-26T22:18:28.318Z,98.07
2018-05-26T22:20:55.938Z,97.47
2018-05-26T22:23:23.500Z,97.69
2018-05-26T22:25:51.104Z,98.06
2018-05-26T22:28:18.674Z,97.84
2018-05-26T22:30:46.242Z,97.95
2018-05-26T22:33:13.841Z,97.88
2018-05-26T22:35:41.406Z,98.08
2018-05-26T22:38:09.052Z,98.23
2018-05-26T22:40:36.662Z,98.08
2018-05-26T22:43:04.244Z,98.32
2018-05-26T22:45:31.836Z,98.56
2018-05-26T22:47:59.456Z,99.36
2018-05-26T22:50:27.040Z,99.27
2018-05-26T22:52:54.632Z,99.41
2018-05-26T22:55:22.255Z,99.64
2018-05-26T22:57:49.871Z,99.68
2018-05-26T23:00:17.592Z,100.00
2018-05-26T23:02:45.231Z,100.00
2018-05-26T23:05:12.823Z,100.00
2018-05-26T23:07:40.403Z,100.00
2018-05-26T23:10:08.010Z,99.83
2018-05-26T23:12:35.600Z,99.33
2018-05-26T23:15:03.179Z,98.98
2018-05-26T23:17:30.785Z,98.77
2018-05-26T23:19:58.377Z,99.42
2018-05-26T23:22:26.094Z,99.41
2018-05-26T23:24:53.711Z,99.08
2018-05-26T23:27:21.305Z,98.99
2018-05-26T23:29:48.880Z,98.67
2018-05-26T23:32:16.492Z,98.64
2018-05-26T23:34:44.077Z,98.15
2018-05-26T23:37:11.659Z,97.88
2018-05-26T23:39:39.871Z,97.89
2018-05-26T23:42:08.450Z,97.95
2018-05-26T23:44:37.104Z,98.32
2018-05-26T23:47:04.753Z,98.09
2018-05-26T23:49:32.342Z,98.20
2018-05-26T23:52:00.001Z,98.43
2018-05-26T23:54:27.638Z,98.36
2018-05-26T23:56:55.418Z,98.54
2018-05-26T23:59:23.016Z,98.66
